createdAt,value
2022-12-15T00:02:35.896Z,4.86
2022-12-15T00:05:50.009Z,2.94
2022-12-15T00:09:03.737Z,1.68
2022-12-15T00:12:16.703Z,0.77
2022-12-15T00:15:29.729Z,1.42
2022-12-15T00:18:42.729Z,4.92
2022-12-15T00:21:49.716Z,4.74
2022-12-15T00:24:43.282Z,2.69
2022-12-15T00:27:49.928Z,1.57
2022-12-15T00:30:50.301Z,4.23
2022-12-15T00:33:56.691Z,4.87
2022-12-15T00:36:55.722Z,2.96
2022-12-15T00:39:50.727Z,1.75
2022-12-15T00:42:38.869Z,4.40
2022-12-15T00:45:13.872Z,4.77
2022-12-15T00:48:01.726Z,3.09
2022-12-15T00:51:01.699Z,1.80
2022-12-15T00:54:18.048Z,3.55
2022-12-15T00:57:23.698Z,5.31
2022-12-15T01:00:24.710Z,3.67
2022-12-15T01:03:30.413Z,2.05
2022-12-15T01:06:42.654Z,1.94
2022-12-15T01:09:35.493Z,5.06
2022-12-15T01:12:41.655Z,4.98
2022-12-15T01:15:34.483Z,3.21
2022-12-15T01:18:40.692Z,1.97
2022-12-15T01:21:28.734Z,1.17
2022-12-15T01:24:16.651Z,1.63
2022-12-15T01:26:57.726Z,4.73
2022-12-15T01:29:52.702Z,5.58
2022-12-15T01:32:47.709Z,3.92
2022-12-15T01:35:36.701Z,2.51
2022-12-15T01:38:18.684Z,1.61
2022-12-15T01:41:18.706Z,2.00
2022-12-15T01:44:33.688Z,5.19
2022-12-15T01:47:28.701Z,4.93
2022-12-15T01:50:27.693Z,3.28
2022-12-15T01:53:23.708Z,2.10
2022-12-15T01:56:19.691Z,1.31
2022-12-15T01:59:16.698Z,1.80
2022-12-15T02:02:11.842Z,5.10
2022-12-15T02:05:10.669Z,5.75
2022-12-15T02:08:05.695Z,4.00
2022-12-15T02:11:23.672Z,2.62
2022-12-15T02:14:25.687Z,1.61
2022-12-15T02:17:28.681Z,1.06
2022-12-15T02:20:57.688Z,3.48
2022-12-15T02:24:10.773Z,5.83
2022-12-15T02:27:32.801Z,4.20
2022-12-15T02:30:29.850Z,2.56
2022-12-15T02:33:36.731Z,1.60
2022-12-15T02:36:43.715Z,0.88
2022-12-15T02:39:18.851Z,2.33
2022-12-15T02:42:07.682Z,5.40
2022-12-15T02:44:53.694Z,5.88
2022-12-15T02:48:11.677Z,4.11
2022-12-15T02:51:06.688Z,2.48
2022-12-15T02:54:02.811Z,1.55
2022-12-15T02:56:55.668Z,2.41
2022-12-15T02:59:44.843Z,5.46
2022-12-15T03:02:35.733Z,5.36
2022-12-15T03:05:11.813Z,3.59
2022-12-15T03:08:00.678Z,2.30
2022-12-15T03:10:35.844Z,2.18
2022-12-15T03:13:23.666Z,5.15
2022-12-15T03:15:58.923Z,5.25
2022-12-15T03:18:46.677Z,3.56
2022-12-15T03:21:21.826Z,2.20
2022-12-15T03:24:16.676Z,1.16
2022-12-15T03:27:11.697Z,0.43
2022-12-15T03:30:06.693Z,-0.02
2022-12-15T03:32:54.835Z,0.99
2022-12-15T03:35:42.670Z,4.27
2022-12-15T03:38:24.768Z,6.03
2022-12-15T03:41:19.655Z,5.26
2022-12-15T03:44:07.668Z,3.41
2022-12-15T03:46:42.844Z,2.24
2022-12-15T03:49:30.780Z,1.97
2022-12-15T03:52:25.679Z,4.96
2022-12-15T03:55:14.652Z,5.82
2022-12-15T03:57:49.886Z,4.16
2022-12-15T04:00:37.712Z,2.78
2022-12-15T04:03:19.711Z,2.61
2022-12-15T04:06:14.661Z,5.41
2022-12-15T04:09:09.663Z,5.38
2022-12-15T04:11:57.804Z,3.67
2022-12-15T04:14:49.650Z,2.37
2022-12-15T04:17:44.673Z,3.17
2022-12-15T04:20:32.654Z,5.92
2022-12-15T04:23:10.971Z,5.25
2022-12-15T04:26:16.643Z,3.67
2022-12-15T04:29:09.281Z,2.38
2022-12-15T04:32:23.666Z,2.72
2022-12-15T04:35:36.685Z,5.88
2022-12-15T04:38:50.889Z,5.62
2022-12-15T04:42:04.656Z,3.76
2022-12-15T04:45:20.886Z,2.44
2022-12-15T04:48:34.673Z,1.59
2022-12-15T04:51:47.674Z,3.65
2022-12-15T04:55:01.723Z,6.40
2022-12-15T04:58:15.670Z,5.07
2022-12-15T05:01:30.857Z,3.38
2022-12-15T05:04:43.684Z,2.24
2022-12-15T05:07:50.661Z,3.12
2022-12-15T05:11:03.671Z,6.18
2022-12-15T05:14:17.724Z,5.32
2022-12-15T05:17:23.684Z,3.56
2022-12-15T05:20:17.541Z,2.46
2022-12-15T05:23:24.907Z,2.87
2022-12-15T05:26:24.625Z,5.95
2022-12-15T05:29:37.682Z,5.79
2022-12-15T05:32:32.686Z,3.92
2022-12-15T05:35:27.644Z,2.72
2022-12-15T05:38:22.636Z,1.90
2022-12-15T05:41:10.647Z,2.46
2022-12-15T05:43:52.726Z,5.42
2022-12-15T05:46:47.810Z,6.40
2022-12-15T05:49:42.730Z,4.78
2022-12-15T05:52:37.629Z,3.24
2022-12-15T05:55:32.642Z,2.25
2022-12-15T05:58:27.738Z,2.26
2022-12-15T06:01:27.688Z,5.45
2022-12-15T06:04:24.697Z,6.19
2022-12-15T06:07:19.705Z,4.33
2022-12-15T06:10:14.640Z,2.95
2022-12-15T06:13:09.708Z,2.01
2022-12-15T06:16:14.721Z,3.35
2022-12-15T06:19:12.718Z,5.91
2022-12-15T06:22:07.724Z,4.66
2022-12-15T06:25:02.629Z,3.16
2022-12-15T06:28:01.730Z,2.10
2022-12-15T06:30:49.769Z,2.84
2022-12-15T06:33:37.694Z,5.84
2022-12-15T06:36:21.629Z,5.67
2022-12-15T06:39:17.629Z,3.97
2022-12-15T06:42:05.634Z,2.74
2022-12-15T06:44:47.700Z,2.00
2022-12-15T06:47:44.621Z,4.12
2022-12-15T06:50:39.649Z,6.11
2022-12-15T06:53:36.698Z,4.72
2022-12-15T06:56:43.682Z,3.25
2022-12-15T06:59:25.063Z,2.20
2022-12-15T07:02:12.878Z,3.01
2022-12-15T07:05:00.737Z,6.05
2022-12-15T07:07:42.731Z,5.69
2022-12-15T07:10:37.604Z,4.05
2022-12-15T07:13:33.196Z,2.92
2022-12-15T07:16:22.823Z,2.14
2022-12-15T07:19:04.626Z,1.73
2022-12-15T07:21:59.718Z,3.46
2022-12-15T07:24:47.655Z,6.57
2022-12-15T07:27:22.796Z,6.51
2022-12-15T07:30:10.624Z,5.16
2022-12-15T07:32:52.622Z,4.00
2022-12-15T07:35:40.613Z,3.15
2022-12-15T07:38:22.617Z,2.54
2022-12-15T07:41:19.731Z,2.09
2022-12-15T07:44:14.710Z,1.75
2022-12-15T07:47:09.611Z,2.60
2022-12-15T07:50:04.586Z,6.16
2022-12-15T07:52:59.598Z,7.40
2022-12-15T07:56:06.268Z,5.95
2022-12-15T07:58:42.242Z,4.74
2022-12-15T08:01:37.721Z,4.03
2022-12-15T08:04:32.596Z,3.54
2022-12-15T08:07:27.602Z,3.16
2022-12-15T08:10:22.599Z,2.86
2022-12-15T08:13:31.631Z,2.66
2022-12-15T08:16:33.660Z,2.54
2022-12-15T08:19:29.595Z,2.48
2022-12-15T08:22:24.579Z,2.52
2022-12-15T08:25:19.610Z,2.55
2022-12-15T08:28:07.580Z,2.54
2022-12-15T08:30:42.746Z,2.56
2022-12-15T08:33:30.934Z,2.62
2022-12-15T08:36:07.800Z,2.67
2022-12-15T08:38:56.592Z,2.57
2022-12-15T08:41:51.644Z,2.44
2022-12-15T08:44:39.682Z,2.38
2022-12-15T08:47:14.818Z,2.32
2022-12-15T08:50:02.652Z,2.23
2022-12-15T08:53:28.794Z,2.09
2022-12-15T08:56:17.611Z,1.87
2022-12-15T08:59:16.593Z,1.71
2022-12-15T09:02:12.734Z,1.61
2022-12-15T09:05:07.673Z,1.50
2022-12-15T09:08:06.594Z,1.43
2022-12-15T09:11:01.587Z,1.34
2022-12-15T09:13:50.571Z,1.29
2022-12-15T09:16:25.842Z,1.27
2022-12-15T09:19:15.747Z,1.24
2022-12-15T09:21:51.010Z,1.23
2022-12-15T09:24:41.612Z,1.23
2022-12-15T09:27:16.787Z,1.23
2022-12-15T09:30:04.594Z,1.26
2022-12-15T09:32:39.999Z,1.28
2022-12-15T09:35:27.730Z,1.30
2022-12-15T09:38:03.715Z,1.33
2022-12-15T09:40:51.570Z,1.36
2022-12-15T09:43:47.641Z,1.41
2022-12-15T09:47:23.563Z,1.45
2022-12-15T09:50:16.584Z,1.54
2022-12-15T09:53:00.725Z,1.59
2022-12-15T09:55:57.587Z,1.64
2022-12-15T09:58:51.615Z,1.70
2022-12-15T10:01:35.780Z,1.71
2022-12-15T10:04:33.608Z,1.71
2022-12-15T10:07:31.582Z,1.73
2022-12-15T10:10:06.722Z,1.72
2022-12-15T10:13:02.030Z,1.77
2022-12-15T10:16:28.820Z,1.83
2022-12-15T10:19:24.570Z,1.87
2022-12-15T10:21:59.752Z,1.86
2022-12-15T10:28:16.568Z,1.89
2022-12-15T10:31:35.571Z,1.90
2022-12-15T10:34:46.755Z,1.86
2022-12-15T10:37:43.583Z,1.85
2022-12-15T10:41:00.584Z,1.86
2022-12-15T10:43:57.671Z,1.80
2022-12-15T10:46:52.723Z,1.72
2022-12-15T10:49:34.009Z,1.72
2022-12-15T10:52:45.645Z,1.73
2022-12-15T10:55:50.005Z,1.79
2022-12-15T10:58:45.584Z,1.85
2022-12-15T11:01:47.642Z,1.88
2022-12-15T11:04:45.554Z,1.95
2022-12-15T11:07:54.653Z,2.11
2022-12-15T11:11:08.600Z,2.28
2022-12-15T11:14:24.595Z,2.45
2022-12-15T11:17:13.657Z,2.61
2022-12-15T11:20:17.574Z,2.70
2022-12-15T11:23:17.143Z,2.70
2022-12-15T11:26:12.590Z,2.66
2022-12-15T11:28:57.863Z,2.59
2022-12-15T11:31:48.846Z,2.54
2022-12-15T11:34:26.757Z,2.49
2022-12-15T11:37:36.851Z,2.49
2022-12-15T11:40:56.613Z,2.53
2022-12-15T11:44:17.550Z,2.61
2022-12-15T11:47:37.610Z,2.62
2022-12-15T11:50:46.560Z,2.61
2022-12-15T11:54:11.648Z,2.66
2022-12-15T11:57:18.544Z,2.69
2022-12-15T12:00:26.556Z,2.75
2022-12-15T12:03:33.584Z,2.78
2022-12-15T12:06:25.550Z,2.77
2022-12-15T12:09:13.552Z,2.71
2022-12-15T12:12:05.560Z,2.60
2022-12-15T12:15:09.671Z,2.46
2022-12-15T12:18:11.599Z,2.28
2022-12-15T12:21:14.585Z,2.12
2022-12-15T12:24:23.551Z,2.02
2022-12-15T12:27:31.627Z,1.96
2022-12-15T12:30:20.560Z,1.88
2022-12-15T12:33:37.545Z,1.73
2022-12-15T12:36:27.552Z,1.60
2022-12-15T12:39:33.657Z,1.52
2022-12-15T12:42:56.609Z,1.51
2022-12-15T12:46:05.561Z,1.56
2022-12-15T12:49:26.452Z,1.58
2022-12-15T12:52:32.539Z,1.52
2022-12-15T12:55:20.564Z,1.40
2022-12-15T12:57:56.303Z,1.33
2022-12-15T13:00:44.611Z,1.27
2022-12-15T13:03:40.568Z,1.23
2022-12-15T13:06:55.640Z,1.25
2022-12-15T13:09:57.610Z,2.72
2022-12-15T13:13:05.585Z,6.35
2022-12-15T13:15:54.568Z,7.61
2022-12-15T13:18:38.596Z,6.36
2022-12-15T13:21:56.987Z,5.14
2022-12-15T13:25:02.743Z,4.24
2022-12-15T13:27:57.536Z,3.74
2022-12-15T13:31:23.773Z,3.36
2022-12-15T13:34:05.587Z,2.93
2022-12-15T13:37:03.792Z,2.65
2022-12-15T13:40:08.732Z,2.38
2022-12-15T13:43:23.552Z,2.12
2022-12-15T13:46:23.724Z,1.82
2022-12-15T13:49:29.624Z,1.56
2022-12-15T13:52:20.632Z,1.34
2022-12-15T13:55:04.677Z,1.16
2022-12-15T13:58:01.529Z,0.98
2022-12-15T14:00:36.789Z,0.86
2022-12-15T14:03:32.039Z,1.65
2022-12-15T14:06:28.603Z,5.12
2022-12-15T14:09:27.673Z,7.35
2022-12-15T14:12:26.515Z,7.46
2022-12-15T14:15:24.555Z,5.79
2022-12-15T14:18:01.867Z,4.48
2022-12-15T14:20:49.530Z,3.65
2022-12-15T14:24:19.613Z,3.11
2022-12-15T14:26:59.507Z,2.56
2022-12-15T14:29:34.713Z,2.22
2022-12-15T14:32:22.509Z,1.93
2022-12-15T14:35:04.537Z,1.62
2022-12-15T14:37:59.533Z,1.35
2022-12-15T14:40:49.284Z,1.11
2022-12-15T14:43:34.138Z,0.91
2022-12-15T14:46:24.600Z,0.73
2022-12-15T14:49:16.527Z,0.58
2022-12-15T14:52:14.605Z,0.44
2022-12-15T14:55:05.653Z,0.32
2022-12-15T14:57:55.514Z,0.25
2022-12-15T15:00:37.708Z,0.18
2022-12-15T15:03:33.520Z,0.11
2022-12-15T15:06:11.658Z,0.82
2022-12-15T15:09:04.758Z,4.17
2022-12-15T15:12:01.801Z,6.69
2022-12-15T15:14:56.589Z,6.80
2022-12-15T15:17:44.525Z,5.23
2022-12-15T15:20:31.951Z,4.00
2022-12-15T15:23:22.621Z,3.23
2022-12-15T15:26:16.548Z,2.75
2022-12-15T15:29:11.522Z,2.29
2022-12-15T15:32:00.717Z,1.90
2022-12-15T15:34:43.519Z,1.55
2022-12-15T15:37:40.871Z,1.22
2022-12-15T15:40:28.557Z,0.97
2022-12-15T15:43:03.736Z,0.76
2022-12-15T15:45:52.618Z,0.59
2022-12-15T15:48:49.543Z,0.40
2022-12-15T15:51:45.521Z,0.22
2022-12-15T15:54:44.508Z,0.06
2022-12-15T15:57:33.526Z,0.88
2022-12-15T16:00:09.783Z,4.20
2022-12-15T16:02:57.824Z,6.33
2022-12-15T16:05:34.320Z,6.93
2022-12-15T16:08:38.876Z,5.56
2022-12-15T16:11:30.953Z,4.06
2022-12-15T16:14:24.666Z,3.14
2022-12-15T16:17:24.796Z,2.50
2022-12-15T16:20:24.532Z,1.99
2022-12-15T16:23:36.504Z,1.57
2022-12-15T16:26:32.721Z,1.22
2022-12-15T16:29:14.501Z,0.94
2022-12-15T16:32:09.544Z,0.70
2022-12-15T16:34:58.008Z,0.51
2022-12-15T16:37:39.585Z,0.31
2022-12-15T16:40:29.535Z,0.14
2022-12-15T16:43:06.661Z,-0.03
2022-12-15T16:45:58.536Z,0.74
2022-12-15T16:48:35.195Z,4.18
2022-12-15T16:51:54.163Z,6.31
2022-12-15T16:54:36.760Z,5.66
2022-12-15T16:57:26.993Z,4.10
2022-12-15T17:00:02.123Z,3.01
2022-12-15T17:02:52.205Z,2.31
2022-12-15T17:05:28.635Z,1.84
2022-12-15T17:08:34.831Z,1.53
2022-12-15T17:11:39.933Z,1.24
2022-12-15T17:14:39.645Z,0.98
2022-12-15T17:17:28.506Z,0.76
2022-12-15T17:20:29.203Z,0.56
2022-12-15T17:23:15.517Z,0.37
2022-12-15T17:26:22.527Z,0.21
2022-12-15T17:29:20.476Z,0.04
2022-12-15T17:32:11.578Z,-0.11
2022-12-15T17:34:47.539Z,-0.22
2022-12-15T17:37:36.688Z,0.45
2022-12-15T17:40:26.779Z,3.79
2022-12-15T17:43:23.598Z,6.23
2022-12-15T17:46:05.714Z,6.10
2022-12-15T17:49:00.493Z,4.47
2022-12-15T17:51:58.499Z,3.27
2022-12-15T17:54:53.492Z,2.45
2022-12-15T17:57:41.614Z,1.86
2022-12-15T18:00:49.037Z,1.42
2022-12-15T18:03:46.775Z,1.04
2022-12-15T18:06:42.817Z,0.73
2022-12-15T18:09:37.479Z,0.43
2022-12-15T18:12:31.820Z,0.14
2022-12-15T18:15:14.789Z,0.77
2022-12-15T18:18:08.064Z,4.05
2022-12-15T18:20:50.504Z,6.22
2022-12-15T18:23:42.889Z,6.23
2022-12-15T18:26:39.664Z,4.58
2022-12-15T18:29:42.704Z,3.17
2022-12-15T18:32:33.520Z,2.29
2022-12-15T18:35:49.536Z,1.63
2022-12-15T18:38:45.467Z,1.07
2022-12-15T18:41:43.329Z,0.62
2022-12-15T18:44:42.824Z,0.24
2022-12-15T18:47:42.570Z,-0.05
2022-12-15T18:50:38.492Z,0.07
2022-12-15T18:53:49.455Z,3.19
2022-12-15T18:56:44.497Z,5.83
2022-12-15T18:59:39.467Z,5.24
2022-12-15T19:02:34.671Z,3.71
2022-12-15T19:05:35.559Z,2.71
2022-12-15T19:08:38.549Z,2.05
2022-12-15T19:11:39.482Z,1.60
2022-12-15T19:14:45.464Z,1.25
2022-12-15T19:17:53.477Z,0.95
2022-12-15T19:21:07.798Z,0.66
2022-12-15T19:23:57.485Z,0.41
2022-12-15T19:26:32.646Z,0.23
2022-12-15T19:29:28.484Z,0.06
2022-12-15T19:32:23.989Z,-0.09
2022-12-15T19:35:11.477Z,-0.27
2022-12-15T19:37:49.949Z,-0.41
2022-12-15T19:40:40.477Z,0.37
2022-12-15T19:43:18.085Z,3.72
2022-12-15T19:46:06.551Z,5.77
2022-12-15T19:48:43.667Z,6.30
2022-12-15T19:51:35.538Z,4.78
2022-12-15T19:54:19.604Z,3.36
2022-12-15T19:57:14.584Z,2.41
2022-12-15T20:00:02.681Z,1.78
2022-12-15T20:02:38.761Z,1.33
2022-12-15T20:05:27.730Z,0.96
2022-12-15T20:08:32.822Z,0.60
2022-12-15T20:11:27.491Z,1.14
2022-12-15T20:14:10.087Z,4.27
2022-12-15T20:16:59.715Z,5.88
2022-12-15T20:19:42.539Z,4.97
2022-12-15T20:22:38.186Z,3.50
2022-12-15T20:25:39.035Z,2.48
2022-12-15T20:28:37.452Z,1.78
2022-12-15T20:31:35.461Z,1.29
2022-12-15T20:34:24.446Z,0.87
2022-12-15T20:37:00.089Z,0.54
2022-12-15T20:39:52.559Z,0.29
2022-12-15T20:42:37.649Z,2.36
2022-12-15T20:45:34.569Z,5.19
2022-12-15T20:48:31.617Z,6.01
2022-12-15T20:51:27.786Z,4.22
2022-12-15T20:54:16.481Z,2.88
2022-12-15T20:57:11.429Z,1.92
2022-12-15T21:00:08.457Z,1.20
2022-12-15T21:03:04.584Z,0.67
2022-12-15T21:05:53.701Z,0.27
2022-12-15T21:08:45.112Z,0.64
2022-12-15T21:11:45.465Z,3.53
2022-12-15T21:14:37.575Z,3.52
2022-12-15T21:17:19.434Z,2.30
2022-12-15T21:20:14.477Z,1.28
2022-12-15T21:23:09.484Z,0.60
2022-12-15T21:26:05.440Z,1.65
2022-12-15T21:29:04.435Z,4.44
2022-12-15T21:31:52.455Z,5.02
2022-12-15T21:34:27.703Z,3.57
2022-12-15T21:37:29.448Z,2.34
2022-12-15T21:40:30.435Z,1.35
2022-12-15T21:43:25.464Z,0.64
2022-12-15T21:46:55.480Z,0.82
2022-12-15T21:49:37.619Z,4.26
2022-12-15T21:52:33.547Z,5.10
2022-12-15T21:55:38.013Z,3.45
2022-12-15T21:58:34.825Z,1.97
2022-12-15T22:01:30.435Z,1.07
2022-12-15T22:04:08.571Z,0.42
2022-12-15T22:06:56.463Z,1.58
2022-12-15T22:09:31.550Z,4.30
2022-12-15T22:12:28.532Z,5.24
2022-12-15T22:15:31.431Z,3.80
2022-12-15T22:18:29.796Z,2.11
2022-12-15T22:21:24.458Z,1.18
2022-12-15T22:24:12.428Z,0.55
2022-12-15T22:26:47.770Z,1.82
2022-12-15T22:29:46.429Z,4.05
2022-12-15T22:32:28.025Z,3.36
2022-12-15T22:35:18.055Z,2.08
2022-12-15T22:38:06.440Z,1.08
2022-12-15T22:41:03.420Z,0.48
2022-12-15T22:43:58.419Z,2.09
2022-12-15T22:46:54.625Z,3.90
2022-12-15T22:49:53.256Z,2.86
2022-12-15T22:52:52.565Z,1.63
2022-12-15T22:55:55.334Z,0.73
2022-12-15T22:58:50.387Z,2.34
2022-12-15T23:01:27.628Z,4.15
2022-12-15T23:04:15.421Z,3.02
2022-12-15T23:06:50.627Z,1.89
2022-12-15T23:09:39.417Z,1.00
2022-12-15T23:12:34.430Z,0.71
2022-12-15T23:15:47.490Z,3.07
2022-12-15T23:18:42.412Z,4.56
2022-12-15T23:21:37.406Z,2.98
2022-12-15T23:24:32.399Z,1.70
2022-12-15T23:27:20.400Z,0.81
2022-12-15T23:30:15.612Z,0.84
2022-12-15T23:33:10.395Z,3.55
2022-12-15T23:36:02.482Z,4.28
2022-12-15T23:38:44.397Z,2.88
2022-12-15T23:41:40.424Z,1.62
2022-12-15T23:44:30.820Z,0.83
2022-12-15T23:47:05.613Z,1.92
2022-12-15T23:49:53.408Z,3.92
2022-12-15T23:52:51.748Z,3.18
2022-12-15T23:55:49.399Z,1.86
2022-12-15T23:58:46.391Z,0.90
